createdAt,value
2023-06-19T00:00:16.886Z,21.47
2023-06-19T00:02:17.749Z,21.44
2023-06-19T00:03:17.767Z,21.48
2023-06-19T00:04:18.442Z,21.48
2023-06-19T00:05:18.628Z,21.5
2023-06-19T00:06:19.544Z,21.5
2023-06-19T00:07:20.276Z,21.51
2023-06-19T00:08:20.795Z,21.4
2023-06-19T00:09:21.720Z,21.5
2023-06-19T00:10:22.788Z,21.51
2023-06-19T00:11:23.485Z,21.48
2023-06-19T00:12:24.248Z,21.48
2023-06-19T00:13:24.374Z,21.47
2023-06-19T00:14:25.079Z,21.48
2023-06-19T00:15:25.599Z,21.5
2023-06-19T00:16:26.606Z,21.47
2023-06-19T00:17:26.411Z,21.53
2023-06-19T00:18:27.338Z,21.44
2023-06-19T00:19:27.683Z,21.53
2023-06-19T00:20:28.542Z,21.43
2023-06-19T00:21:29.390Z,21.45
2023-06-19T00:22:30.158Z,21.45
2023-06-19T00:23:30.739Z,21.47
2023-06-19T00:24:31.813Z,21.47
2023-06-19T00:25:32.387Z,21.44
2023-06-19T00:26:32.909Z,21.48
2023-06-19T00:27:33.655Z,21.53
2023-06-19T00:28:33.976Z,21.45
2023-06-19T00:29:34.523Z,21.48
2023-06-19T00:30:35.634Z,21.45
2023-06-19T00:31:36.093Z,21.51
2023-06-19T00:32:37.091Z,21.41
2023-06-19T00:33:37.572Z,21.45
2023-06-19T00:34:38.329Z,21.43
2023-06-19T00:35:38.844Z,21.48
2023-06-19T00:36:39.541Z,21.41
2023-06-19T00:37:40.438Z,21.44
2023-06-19T00:38:41.657Z,21.38
2023-06-19T00:39:45.272Z,21.43
2023-06-19T00:40:42.819Z,21.4
2023-06-19T00:41:43.665Z,21.5
2023-06-19T00:42:44.378Z,21.47
2023-06-19T00:43:45.176Z,21.45
2023-06-19T00:44:46.108Z,21.5
2023-06-19T00:45:46.113Z,21.53
2023-06-19T00:46:46.985Z,21.41
2023-06-19T00:47:47.643Z,21.45
2023-06-19T00:48:48.508Z,21.53
2023-06-19T00:49:49.022Z,21.47
2023-06-19T00:50:49.795Z,21.5
2023-06-19T00:51:50.232Z,21.5
2023-06-19T00:52:50.940Z,21.51
2023-06-19T00:53:51.681Z,21.51
2023-06-19T00:54:52.188Z,21.5
2023-06-19T00:55:53.128Z,21.54
2023-06-19T00:56:54.059Z,21.48
2023-06-19T00:57:54.980Z,21.38
2023-06-19T00:58:55.562Z,21.38
2023-06-19T00:59:56.278Z,21.38
2023-06-19T01:01:13.133Z,21.37
2023-06-19T01:03:01.357Z,21.3
2023-06-19T01:04:02.477Z,21.32
2023-06-19T01:05:01.817Z,21.33
2023-06-19T01:06:02.451Z,21.33
2023-06-19T01:07:02.757Z,21.28
2023-06-19T01:08:03.461Z,21.33
2023-06-19T01:09:04.209Z,21.28
2023-06-19T01:10:04.713Z,21.2
2023-06-19T01:11:26.357Z,21.17
2023-06-19T01:13:15.137Z,21.2
2023-06-19T01:14:15.653Z,21.2
2023-06-19T01:15:16.158Z,21.15
2023-06-19T01:16:17.191Z,21.17
2023-06-19T01:17:18.219Z,21.2
2023-06-19T01:18:18.577Z,21.19
2023-06-19T01:19:19.088Z,21.15
2023-06-19T01:20:20.003Z,21.14
2023-06-19T01:21:20.182Z,21.2
2023-06-19T01:22:20.825Z,21.19
2023-06-19T01:23:21.543Z,21.17
2023-06-19T01:24:22.154Z,21.14
2023-06-19T01:25:22.646Z,21.19
2023-06-19T01:26:24.185Z,21.28
2023-06-19T01:27:24.943Z,21.19
2023-06-19T01:28:25.362Z,21.25
2023-06-19T01:29:26.303Z,21.17
2023-06-19T01:30:27.634Z,21.17
2023-06-19T01:31:27.253Z,21.17
2023-06-19T01:32:28.373Z,21.3
2023-06-19T01:33:29.454Z,21.22
2023-06-19T01:34:29.237Z,21.14
2023-06-19T01:35:30.400Z,21.17
2023-06-19T01:36:31.568Z,21.19
2023-06-19T01:37:32.369Z,21.11
2023-06-19T01:38:32.391Z,21.17
2023-06-19T01:39:33.112Z,21.15
2023-06-19T01:40:33.607Z,21.08
2023-06-19T01:41:34.368Z,21.2
2023-06-19T01:42:35.049Z,21.15
2023-06-19T01:43:35.632Z,21.11
2023-06-19T01:44:36.563Z,21.13
2023-06-19T01:45:37.366Z,21.15
2023-06-19T01:46:38.058Z,21.14
2023-06-19T01:47:38.298Z,21.08
2023-06-19T01:48:38.328Z,21.17
2023-06-19T01:49:39.146Z,21.08
2023-06-19T01:50:39.863Z,21.14
2023-06-19T01:51:40.789Z,21.14
2023-06-19T01:52:41.032Z,21.15
2023-06-19T01:53:41.396Z,21.15
2023-06-19T01:54:41.873Z,21.13
2023-06-19T01:55:42.168Z,21.17
2023-06-19T01:56:42.918Z,21.19
2023-06-19T01:57:43.675Z,21.11
2023-06-19T01:58:44.194Z,21.15
2023-06-19T01:59:44.482Z,21.11
2023-06-19T02:00:45.218Z,21.11
2023-06-19T02:01:45.933Z,21.14
2023-06-19T02:02:46.941Z,21.1
2023-06-19T02:03:47.927Z,21.13
2023-06-19T02:05:47.775Z,21.17
2023-06-19T02:06:48.664Z,21.11
2023-06-19T02:07:49.169Z,21.13
2023-06-19T02:08:49.980Z,21.11
2023-06-19T02:09:50.666Z,21.14
2023-06-19T02:10:51.956Z,21.13
2023-06-19T02:11:52.478Z,21.13
2023-06-19T02:12:53.246Z,21.17
2023-06-19T02:13:53.769Z,21.15
2023-06-19T02:14:54.498Z,21.15
2023-06-19T02:15:55.284Z,21.17
2023-06-19T02:16:56.050Z,21.14
2023-06-19T02:17:56.996Z,21.17
2023-06-19T02:18:57.083Z,21.15
2023-06-19T02:19:58.012Z,21.05
2023-06-19T02:20:58.533Z,21.03
2023-06-19T02:21:59.057Z,21.05
2023-06-19T02:22:59.917Z,21.11
2023-06-19T02:24:00.660Z,21.19
2023-06-19T02:25:01.335Z,21.07
2023-06-19T02:26:01.655Z,21.11
2023-06-19T02:27:02.259Z,21.14
2023-06-19T02:28:03.005Z,21.15
2023-06-19T02:29:03.609Z,21.15
2023-06-19T02:30:04.318Z,21.03
2023-06-19T02:31:05.128Z,21.08
2023-06-19T02:32:05.623Z,21.03
2023-06-19T02:33:06.832Z,21.15
2023-06-19T02:34:07.456Z,21.14
2023-06-19T02:35:08.106Z,21.08
2023-06-19T02:36:08.819Z,21.14
2023-06-19T02:37:09.574Z,21.08
2023-06-19T02:38:10.324Z,21.04
2023-06-19T02:39:11.191Z,21.04
2023-06-19T02:40:12.150Z,21.04
2023-06-19T02:41:13.048Z,21.04
2023-06-19T02:42:14.021Z,20.98
2023-06-19T02:43:14.906Z,21.13
2023-06-19T02:44:15.056Z,21.03
2023-06-19T02:45:15.030Z,21.14
2023-06-19T02:46:18.894Z,21.07
2023-06-19T02:48:16.531Z,21.03
2023-06-19T02:49:17.258Z,21.1
2023-06-19T02:50:17.985Z,21
2023-06-19T02:51:18.825Z,21.05
2023-06-19T02:52:19.542Z,21.01
2023-06-19T02:53:19.777Z,21.04
2023-06-19T02:54:20.287Z,21.01
2023-06-19T02:55:21.254Z,21.01
2023-06-19T02:56:22.163Z,21.13
2023-06-19T02:57:23.189Z,21.04
2023-06-19T02:58:23.121Z,21.03
2023-06-19T02:59:23.864Z,21.04
2023-06-19T03:00:25.292Z,21.03
2023-06-19T03:01:24.673Z,20.86
2023-06-19T03:02:25.866Z,20.89
2023-06-19T03:03:26.608Z,21.07
2023-06-19T03:04:29.769Z,21.07
2023-06-19T03:05:26.844Z,20.98
2023-06-19T03:06:27.542Z,21
2023-06-19T03:07:28.255Z,21
2023-06-19T03:08:28.960Z,20.96
2023-06-19T03:09:29.896Z,21.03
2023-06-19T03:10:31.159Z,20.95
2023-06-19T03:11:30.869Z,20.96
2023-06-19T03:12:31.975Z,21.01
2023-06-19T03:13:32.779Z,21.03
2023-06-19T03:14:33.526Z,20.96
2023-06-19T03:15:34.044Z,20.92
2023-06-19T03:16:34.164Z,20.92
2023-06-19T03:17:35.058Z,20.98
2023-06-19T03:18:34.920Z,21.1
2023-06-19T03:19:35.737Z,20.98
2023-06-19T03:20:36.712Z,20.98
2023-06-19T03:21:37.219Z,21
2023-06-19T03:22:37.783Z,21.01
2023-06-19T03:23:38.611Z,21.07
2023-06-19T03:24:38.976Z,21.08
2023-06-19T03:25:39.393Z,21.04
2023-06-19T03:26:40.311Z,21.04
2023-06-19T03:27:41.101Z,21.03
2023-06-19T03:28:41.452Z,21.03
2023-06-19T03:29:42.595Z,21.04
2023-06-19T03:30:42.309Z,21.05
2023-06-19T03:31:43.226Z,21.1
2023-06-19T03:32:44.103Z,21.04
2023-06-19T03:33:44.782Z,21.01
2023-06-19T03:34:45.309Z,21.04
2023-06-19T03:35:45.835Z,21.1
2023-06-19T03:36:46.584Z,21.05
2023-06-19T03:37:47.288Z,21.03
2023-06-19T03:38:48.011Z,21.11
2023-06-19T03:39:48.293Z,21.05
2023-06-19T03:40:49.396Z,21.11
2023-06-19T03:41:49.922Z,21.01
2023-06-19T03:42:50.746Z,21.07
2023-06-19T03:43:51.414Z,21.07
2023-06-19T03:44:51.949Z,21.1
2023-06-19T03:45:52.767Z,21.03
2023-06-19T03:46:53.961Z,21.07
2023-06-19T03:47:54.899Z,21.01
2023-06-19T03:48:55.449Z,21.05
2023-06-19T03:49:56.327Z,21.07
2023-06-19T03:50:56.569Z,21.04
2023-06-19T03:51:57.300Z,21.04
2023-06-19T03:52:58.011Z,21.13
2023-06-19T03:53:58.469Z,21.08
2023-06-19T03:54:59.377Z,21.07
2023-06-19T03:56:02.265Z,21.04
2023-06-19T03:58:00.603Z,21.03
2023-06-19T03:59:00.951Z,21.05
2023-06-19T04:00:01.939Z,20.96
2023-06-19T04:01:02.469Z,21.08
2023-06-19T04:02:03.561Z,20.9
2023-06-19T04:03:04.431Z,21.01
2023-06-19T04:04:04.641Z,21
2023-06-19T04:05:04.825Z,20.98
2023-06-19T04:06:05.800Z,21.04
2023-06-19T04:07:06.321Z,21
2023-06-19T04:08:07.406Z,21.01
2023-06-19T04:09:08.340Z,21.05
2023-06-19T04:10:08.928Z,21.04
2023-06-19T04:11:09.991Z,21.01
2023-06-19T04:12:10.514Z,21.04
2023-06-19T04:13:11.303Z,21.05
2023-06-19T04:14:11.310Z,21.13
2023-06-19T04:15:11.860Z,21.13
2023-06-19T04:16:12.796Z,21.1
2023-06-19T04:17:12.701Z,21.13
2023-06-19T04:18:12.997Z,21.13
2023-06-19T04:19:14.033Z,21.15
2023-06-19T04:20:14.394Z,21.14
2023-06-19T04:21:15.319Z,21.19
2023-06-19T04:22:15.841Z,21.2
2023-06-19T04:23:16.562Z,21.14
2023-06-19T04:24:17.266Z,21.22
2023-06-19T04:25:17.864Z,21.28
2023-06-19T04:26:18.625Z,21.29
2023-06-19T04:27:19.554Z,21.33
2023-06-19T04:28:20.293Z,21.3
2023-06-19T04:29:21.057Z,21.32
2023-06-19T04:30:22.258Z,21.3
2023-06-19T04:31:22.256Z,21.35
2023-06-19T04:32:22.829Z,21.3
2023-06-19T04:33:23.948Z,21.35
2023-06-19T04:34:23.985Z,21.29
2023-06-19T04:35:24.740Z,21.29
2023-06-19T04:36:24.531Z,21.25
2023-06-19T04:37:24.814Z,21.19
2023-06-19T04:38:25.515Z,21.11
2023-06-19T04:39:26.013Z,21.07
2023-06-19T04:40:27.500Z,21.13
2023-06-19T04:41:27.149Z,21.15
2023-06-19T04:42:27.593Z,21.13
2023-06-19T04:43:28.208Z,21.14
2023-06-19T04:44:28.895Z,21.15
2023-06-19T04:45:29.612Z,21.14
2023-06-19T04:46:30.084Z,21.15
2023-06-19T04:47:54.185Z,21.15
2023-06-19T04:49:32.866Z,21.15
2023-06-19T04:50:33.626Z,21.13
2023-06-19T04:51:34.183Z,21.2
2023-06-19T04:52:35.776Z,21.23
2023-06-19T04:53:36.371Z,21.19
2023-06-19T04:54:36.458Z,21.19
2023-06-19T04:55:37.024Z,21.25
2023-06-19T04:56:37.559Z,21.3
2023-06-19T04:57:38.719Z,21.26
2023-06-19T04:58:38.739Z,21.29
2023-06-19T04:59:39.284Z,21.29
2023-06-19T05:00:40.205Z,21.3
2023-06-19T05:01:40.654Z,21.29
2023-06-19T05:02:41.506Z,21.29
2023-06-19T05:03:41.574Z,21.41
2023-06-19T05:04:42.554Z,21.35
2023-06-19T05:05:43.321Z,21.41
2023-06-19T05:06:44.100Z,21.41
2023-06-19T05:07:44.997Z,21.35
2023-06-19T05:08:45.592Z,21.38
2023-06-19T05:09:46.782Z,21.45
2023-06-19T05:10:49.815Z,21.45
2023-06-19T05:12:47.977Z,21.4
2023-06-19T05:13:48.952Z,21.51
2023-06-19T05:14:49.256Z,21.48
2023-06-19T05:15:50.498Z,21.53
2023-06-19T05:16:50.968Z,21.53
2023-06-19T05:17:50.904Z,21.54
2023-06-19T05:18:51.544Z,21.56
2023-06-19T05:19:52.260Z,21.59
2023-06-19T05:20:53.018Z,21.59
2023-06-19T05:21:53.974Z,21.62
2023-06-19T05:22:54.959Z,21.59
2023-06-19T05:23:55.158Z,21.6
2023-06-19T05:24:56.041Z,21.6
2023-06-19T05:25:56.565Z,21.65
2023-06-19T05:26:57.457Z,21.69
2023-06-19T05:27:58.226Z,21.74
2023-06-19T05:28:58.470Z,21.74
2023-06-19T05:29:59.226Z,21.75
2023-06-19T05:30:59.767Z,21.85
2023-06-19T05:32:00.526Z,21.88
2023-06-19T05:33:01.459Z,21.88
2023-06-19T05:34:01.091Z,21.89
2023-06-19T05:35:01.591Z,21.91
2023-06-19T05:36:02.499Z,21.92
2023-06-19T05:37:03.657Z,22
2023-06-19T05:38:03.972Z,22
2023-06-19T05:39:05.135Z,22.15
2023-06-19T05:40:05.167Z,22.16
2023-06-19T05:41:05.541Z,22.16
2023-06-19T05:42:06.063Z,22.18
2023-06-19T05:43:07.463Z,22.23
2023-06-19T05:44:07.217Z,22.23
2023-06-19T05:45:08.326Z,22.33
2023-06-19T05:46:09.399Z,22.33
2023-06-19T05:47:09.392Z,22.51
2023-06-19T05:48:09.925Z,22.53
2023-06-19T05:49:10.979Z,22.61
2023-06-19T05:50:11.571Z,22.68
2023-06-19T05:51:12.367Z,22.76
2023-06-19T05:52:13.356Z,22.71
2023-06-19T05:53:16.316Z,22.83
2023-06-19T05:54:14.522Z,22.92
2023-06-19T05:55:15.329Z,22.95
2023-06-19T05:56:16.149Z,23.02
2023-06-19T05:57:15.872Z,22.99
2023-06-19T05:58:16.372Z,23.1
2023-06-19T05:59:17.330Z,23.11
2023-06-19T06:00:18.185Z,23.14
2023-06-19T06:01:18.536Z,23.1
2023-06-19T06:02:19.287Z,23.11
2023-06-19T06:03:20.259Z,23.18
2023-06-19T06:04:21.070Z,23.18
2023-06-19T06:05:21.758Z,23.26
2023-06-19T06:06:22.367Z,23.2
2023-06-19T06:07:23.089Z,23.34
2023-06-19T06:08:23.263Z,23.4
2023-06-19T06:09:24.104Z,23.34
2023-06-19T06:10:25.282Z,23.48
2023-06-19T06:11:25.170Z,23.44
2023-06-19T06:12:25.111Z,23.56
2023-06-19T06:13:26.329Z,23.56
2023-06-19T06:14:27.066Z,23.58
2023-06-19T06:15:27.668Z,23.58
2023-06-19T06:16:28.306Z,23.66
2023-06-19T06:17:29.575Z,23.64
2023-06-19T06:18:29.652Z,23.7
2023-06-19T06:19:33.080Z,23.64
2023-06-19T06:20:31.006Z,23.69
2023-06-19T06:21:31.861Z,23.63
2023-06-19T06:22:32.414Z,23.71
2023-06-19T06:23:33.148Z,23.69
2023-06-19T06:24:34.048Z,23.64
2023-06-19T06:25:34.521Z,23.71
2023-06-19T06:26:35.410Z,23.62
2023-06-19T06:27:35.907Z,23.67
2023-06-19T06:28:36.675Z,23.7
2023-06-19T06:29:37.437Z,23.66
2023-06-19T06:30:38.400Z,23.56
2023-06-19T06:31:39.229Z,23.58
2023-06-19T06:32:40.347Z,23.59
2023-06-19T06:33:40.399Z,23.62
2023-06-19T06:34:41.162Z,23.62
2023-06-19T06:35:41.984Z,23.56
2023-06-19T06:37:06.202Z,23.66
2023-06-19T06:38:43.153Z,23.67
2023-06-19T06:39:43.722Z,23.67
2023-06-19T06:40:44.484Z,23.71
2023-06-19T06:41:45.431Z,23.79
2023-06-19T06:42:46.448Z,23.74
2023-06-19T06:43:47.192Z,23.7
2023-06-19T06:44:48.420Z,23.76
2023-06-19T06:45:48.821Z,23.82
2023-06-19T06:46:48.869Z,23.89
2023-06-19T06:47:49.717Z,23.88
2023-06-19T06:48:50.822Z,23.86
2023-06-19T06:49:51.736Z,23.88
2023-06-19T06:50:52.126Z,23.95
2023-06-19T06:51:55.549Z,23.91
2023-06-19T06:52:53.958Z,23.91
2023-06-19T06:53:54.129Z,23.86
2023-06-19T06:54:53.859Z,23.91
2023-06-19T06:55:54.892Z,23.96
2023-06-19T06:56:55.601Z,23.91
2023-06-19T06:57:56.134Z,24
2023-06-19T06:58:57.042Z,23.88
2023-06-19T06:59:57.791Z,23.99
2023-06-19T07:00:58.942Z,23.94
2023-06-19T07:01:59.394Z,23.95
2023-06-19T07:02:59.803Z,23.96
2023-06-19T07:04:01.432Z,23.91
2023-06-19T07:06:00.253Z,23.96
2023-06-19T07:07:01.400Z,23.95
2023-06-19T07:08:01.961Z,23.92
2023-06-19T07:09:02.939Z,23.99
2023-06-19T07:10:03.648Z,23.91
2023-06-19T07:11:04.020Z,23.91
2023-06-19T07:12:04.723Z,23.92
2023-06-19T07:13:05.944Z,24.04
2023-06-19T07:14:06.073Z,23.94
2023-06-19T07:15:07.052Z,24.03
2023-06-19T07:16:07.193Z,24.03
2023-06-19T07:17:08.404Z,24.06
2023-06-19T07:18:08.727Z,24.01
2023-06-19T07:19:09.087Z,24.03
2023-06-19T07:20:09.653Z,24.1
2023-06-19T07:21:10.396Z,24.19
2023-06-19T07:22:10.339Z,24.18
2023-06-19T07:23:11.195Z,24.16
2023-06-19T07:24:12.198Z,24.13
2023-06-19T07:25:12.497Z,24.24
2023-06-19T07:26:12.588Z,24.32
2023-06-19T07:27:13.762Z,24.37
2023-06-19T07:28:14.777Z,24.56
2023-06-19T07:29:15.598Z,24.58
2023-06-19T07:30:17.592Z,24.62
2023-06-19T07:31:16.877Z,24.61
2023-06-19T07:32:17.594Z,24.82
2023-06-19T07:33:17.801Z,24.89
2023-06-19T07:34:18.602Z,24.92
2023-06-19T07:35:19.344Z,24.94
2023-06-19T07:36:20.274Z,25.01
2023-06-19T07:37:20.986Z,25.11
2023-06-19T07:38:21.436Z,25.29
2023-06-19T07:39:21.762Z,25.29
2023-06-19T07:40:23.019Z,25.29
2023-06-19T07:41:23.416Z,25.33
2023-06-19T07:42:24.403Z,25.36
2023-06-19T07:43:24.986Z,25.54
2023-06-19T07:44:25.515Z,25.58
2023-06-19T07:45:26.395Z,25.74
2023-06-19T07:46:27.449Z,25.8
2023-06-19T07:47:27.844Z,25.88
2023-06-19T07:48:28.690Z,25.91
2023-06-19T07:49:28.395Z,26.04
2023-06-19T07:50:33.504Z,26.22
2023-06-19T07:52:30.796Z,26.48
2023-06-19T07:53:31.881Z,26.7
2023-06-19T07:54:32.900Z,26.81
2023-06-19T07:55:33.668Z,27.11
2023-06-19T07:56:34.526Z,27.28
2023-06-19T07:57:35.475Z,27.55
2023-06-19T07:58:36.218Z,28.08
2023-06-19T07:59:36.575Z,28.43
2023-06-19T08:00:37.335Z,28.89
2023-06-19T08:01:38.405Z,29.16
2023-06-19T08:02:39.403Z,29.18
2023-06-19T08:03:40.482Z,29.21
2023-06-19T08:04:40.770Z,29.12
2023-06-19T08:05:40.872Z,28.96
2023-06-19T08:06:41.142Z,28.7
2023-06-19T08:07:42.290Z,28.6
2023-06-19T08:08:42.235Z,28.52
2023-06-19T08:09:43.080Z,28.43
2023-06-19T08:10:43.790Z,28.43
2023-06-19T08:11:44.345Z,28.49
2023-06-19T08:12:45.378Z,28.57
2023-06-19T08:13:45.082Z,28.62
2023-06-19T08:14:46.219Z,28.65
2023-06-19T08:15:46.773Z,28.68
2023-06-19T08:16:47.736Z,28.7
2023-06-19T08:17:48.496Z,28.7
2023-06-19T08:18:49.436Z,28.75
2023-06-19T08:19:50.314Z,28.89
2023-06-19T08:20:51.248Z,29.07
2023-06-19T08:21:52.109Z,29.21
2023-06-19T08:22:52.827Z,29.22
2023-06-19T08:23:53.162Z,29.22
2023-06-19T08:24:53.244Z,29.35
2023-06-19T08:25:53.621Z,29.44
2023-06-19T08:26:54.086Z,29.57
2023-06-19T08:27:54.634Z,29.76
2023-06-19T08:28:55.410Z,29.9
2023-06-19T08:29:56.387Z,29.96
2023-06-19T08:30:57.586Z,30.03
2023-06-19T08:31:57.689Z,30.13
2023-06-19T08:32:57.825Z,30.21
2023-06-19T08:34:00.656Z,30.36
2023-06-19T08:35:59.470Z,30.69
2023-06-19T08:36:59.971Z,30.74
2023-06-19T08:38:00.901Z,31.02
2023-06-19T08:39:01.726Z,31.33
2023-06-19T08:40:02.812Z,31.51
2023-06-19T08:41:03.226Z,31.82
2023-06-19T08:42:03.979Z,32.08
2023-06-19T08:43:03.814Z,32.3
2023-06-19T08:44:04.772Z,32.51
2023-06-19T08:45:05.177Z,32.71
2023-06-19T08:46:05.564Z,32.79
2023-06-19T08:47:05.957Z,32.81
2023-06-19T08:48:06.425Z,32.88
2023-06-19T08:49:06.308Z,32.76
2023-06-19T08:50:08.800Z,32.64
2023-06-19T08:52:08.591Z,32.49
2023-06-19T08:53:09.520Z,32.53
2023-06-19T08:54:10.355Z,32.56
2023-06-19T08:55:10.688Z,32.72
2023-06-19T08:56:11.028Z,32.85
2023-06-19T08:57:11.451Z,32.88
2023-06-19T08:58:11.701Z,33
2023-06-19T08:59:12.688Z,33.04
2023-06-19T09:00:13.559Z,33.15
2023-06-19T09:01:14.249Z,33.16
2023-06-19T09:02:15.423Z,33.22
2023-06-19T09:03:20.056Z,33.16
2023-06-19T09:05:16.673Z,33
2023-06-19T09:06:17.226Z,32.83
2023-06-19T09:07:17.991Z,32.76
2023-06-19T09:08:18.234Z,32.83
2023-06-19T09:09:18.258Z,32.79
2023-06-19T09:10:19.341Z,32.79
2023-06-19T09:11:19.750Z,32.82
2023-06-19T09:12:19.872Z,32.95
2023-06-19T09:13:20.874Z,32.95
2023-06-19T09:14:21.018Z,33.13
2023-06-19T09:15:20.976Z,33.42
2023-06-19T09:16:21.874Z,33.47
2023-06-19T09:17:23.205Z,33.55
2023-06-19T09:18:23.502Z,33.57
2023-06-19T09:19:23.614Z,33.5
2023-06-19T09:20:25.098Z,33.57
2023-06-19T09:21:24.183Z,33.67
2023-06-19T09:22:25.202Z,33.77
2023-06-19T09:23:25.550Z,33.95
2023-06-19T09:24:26.807Z,34.18
2023-06-19T09:25:27.323Z,34.1
2023-06-19T09:26:28.322Z,34.09
2023-06-19T09:27:28.812Z,34.02
2023-06-19T09:28:29.644Z,33.97
2023-06-19T09:29:30.601Z,34.04
2023-06-19T09:30:31.693Z,34.16
2023-06-19T09:31:31.851Z,34.16
2023-06-19T09:32:33.040Z,34.07
2023-06-19T09:33:33.064Z,33.88
2023-06-19T09:34:35.329Z,33.65
2023-06-19T09:35:34.205Z,33.55
2023-06-19T09:36:34.874Z,33.36
2023-06-19T09:37:35.735Z,33.17
2023-06-19T09:38:36.296Z,33.12
2023-06-19T09:39:36.594Z,33.1
2023-06-19T09:40:36.906Z,33.33
2023-06-19T09:41:36.925Z,33.38
2023-06-19T09:42:37.700Z,33.13
2023-06-19T09:43:37.627Z,33.03
2023-06-19T09:44:47.557Z,32.9
2023-06-19T09:46:40.783Z,32.22
2023-06-19T09:47:41.163Z,32.12
2023-06-19T09:48:42.038Z,31.92
2023-06-19T09:49:42.857Z,31.78
2023-06-19T09:50:43.607Z,31.67
2023-06-19T09:51:44.777Z,31.55
2023-06-19T09:52:45.721Z,31.44
2023-06-19T09:53:46.670Z,31.26
2023-06-19T09:54:47.559Z,31.33
2023-06-19T09:55:48.808Z,31.39
2023-06-19T09:56:48.976Z,31.37
2023-06-19T09:57:49.964Z,31.35
2023-06-19T09:58:50.821Z,31.28
2023-06-19T09:59:51.556Z,31.37
2023-06-19T10:00:52.012Z,31.29
2023-06-19T10:01:53.279Z,31.2
2023-06-19T10:02:54.702Z,31.18
2023-06-19T10:03:55.219Z,31.14
2023-06-19T10:04:56.271Z,31.17
2023-06-19T10:05:56.552Z,31.22
2023-06-19T10:06:56.944Z,31.23
2023-06-19T10:07:57.824Z,31.23
2023-06-19T10:08:57.819Z,31.22
2023-06-19T10:09:59.011Z,31.17
2023-06-19T10:10:59.014Z,31.17
2023-06-19T10:12:00.141Z,31.14
2023-06-19T10:13:00.929Z,31
2023-06-19T10:14:01.878Z,30.99
2023-06-19T10:15:02.689Z,30.89
2023-06-19T10:16:03.647Z,30.76
2023-06-19T10:17:04.844Z,30.76
2023-06-19T10:18:05.380Z,30.78
2023-06-19T10:19:05.327Z,30.77
2023-06-19T10:20:05.921Z,30.99
2023-06-19T10:21:07.226Z,31
2023-06-19T10:22:08.193Z,31.17
2023-06-19T10:23:09.287Z,31.23
2023-06-19T10:25:08.620Z,30.93
2023-06-19T10:26:10.079Z,30.85
2023-06-19T10:29:10.924Z,30.73
2023-06-19T10:30:22.778Z,30.74
2023-06-19T10:32:13.037Z,30.78
2023-06-19T10:33:14.043Z,30.71
2023-06-19T10:34:15.010Z,30.65
2023-06-19T10:35:15.793Z,30.83
2023-06-19T10:36:19.404Z,31.05
2023-06-19T10:39:18.733Z,31.54
2023-06-19T10:40:20.260Z,31.63
2023-06-19T10:41:20.578Z,31.7
2023-06-19T10:42:20.823Z,31.55
2023-06-19T10:43:21.361Z,31.57
2023-06-19T10:44:22.231Z,31.55
2023-06-19T10:45:21.984Z,31.6
2023-06-19T10:46:22.850Z,31.73
2023-06-19T10:47:23.503Z,31.92
2023-06-19T10:48:24.236Z,32.04
2023-06-19T10:49:25.301Z,31.86
2023-06-19T10:50:26.289Z,31.74
2023-06-19T10:51:27.082Z,31.55
2023-06-19T10:52:27.727Z,31.54
2023-06-19T10:53:28.568Z,31.51
2023-06-19T10:54:28.408Z,31.41
2023-06-19T10:55:29.176Z,31.48
2023-06-19T10:56:30.231Z,31.47
2023-06-19T10:57:31.164Z,31.29
2023-06-19T10:58:32.142Z,31.13
2023-06-19T10:59:32.881Z,30.99
2023-06-19T11:00:33.839Z,31.02
2023-06-19T11:01:34.821Z,31.15
2023-06-19T11:02:35.280Z,31.13
2023-06-19T11:03:36.121Z,31.17
2023-06-19T11:04:36.065Z,31.18
2023-06-19T11:05:36.820Z,31.26
2023-06-19T11:06:37.764Z,31.22
2023-06-19T11:07:38.315Z,31.13
2023-06-19T11:08:39.204Z,31
2023-06-19T11:09:43.135Z,30.88
2023-06-19T11:10:40.229Z,30.89
2023-06-19T11:11:41.210Z,31.05
2023-06-19T11:12:42.068Z,31.14
2023-06-19T11:13:43.232Z,31.15
2023-06-19T11:14:43.626Z,31.18
2023-06-19T11:15:44.020Z,31.18
2023-06-19T11:16:44.285Z,31.17
2023-06-19T11:17:45.443Z,31.15
2023-06-19T11:18:45.870Z,31.22
2023-06-19T11:19:45.896Z,31.15
2023-06-19T11:20:46.445Z,31.14
2023-06-19T11:21:47.060Z,31.18
2023-06-19T11:22:47.820Z,31.26
2023-06-19T11:23:48.725Z,31.17
2023-06-19T11:24:49.860Z,31.13
2023-06-19T11:25:50.022Z,31.18
2023-06-19T11:26:50.024Z,31.08
2023-06-19T11:27:50.947Z,31.17
2023-06-19T11:28:51.192Z,31.25
2023-06-19T11:29:52.051Z,31.36
2023-06-19T11:30:52.791Z,31.51
2023-06-19T11:31:52.910Z,31.64
2023-06-19T11:32:54.208Z,31.82
2023-06-19T11:33:54.203Z,32.02
2023-06-19T11:34:54.294Z,32.24
2023-06-19T11:35:55.091Z,32.24
2023-06-19T11:36:55.932Z,32.41
2023-06-19T11:37:56.894Z,32.53
2023-06-19T11:38:57.777Z,32.68
2023-06-19T11:39:58.728Z,32.91
2023-06-19T11:40:58.773Z,33
2023-06-19T11:42:01.132Z,33.17
2023-06-19T11:44:01.062Z,33.2
2023-06-19T11:45:02.091Z,33.2
2023-06-19T11:46:02.316Z,33.13
2023-06-19T11:47:02.418Z,33.13
2023-06-19T11:48:03.598Z,33.01
2023-06-19T11:49:13.148Z,32.86
2023-06-19T11:51:05.250Z,32.82
2023-06-19T11:52:06.334Z,32.9
2023-06-19T11:53:06.301Z,32.85
2023-06-19T11:54:07.578Z,32.9
2023-06-19T11:55:08.035Z,32.93
2023-06-19T11:56:08.882Z,32.83
2023-06-19T11:57:09.628Z,32.81
2023-06-19T11:58:10.155Z,32.75
2023-06-19T11:59:10.860Z,32.72
2023-06-19T12:00:10.871Z,32.67
2023-06-19T12:01:11.495Z,32.48
2023-06-19T12:02:12.681Z,32.3
2023-06-19T12:03:14.131Z,32.12
2023-06-19T12:04:14.283Z,32.04
2023-06-19T12:05:13.817Z,31.93
2023-06-19T12:06:13.924Z,31.87
2023-06-19T12:07:14.780Z,31.72
2023-06-19T12:08:15.864Z,31.59
2023-06-19T12:09:16.382Z,31.52
2023-06-19T12:10:17.242Z,31.5
2023-06-19T12:11:17.469Z,31.36
2023-06-19T12:12:17.816Z,31.28
2023-06-19T12:13:17.771Z,31
2023-06-19T12:14:18.587Z,30.93
2023-06-19T12:15:19.140Z,30.81
2023-06-19T12:16:20.192Z,30.8
2023-06-19T12:17:20.563Z,30.59
2023-06-19T12:18:20.427Z,30.49
2023-06-19T12:19:26.353Z,30.4
2023-06-19T12:21:43.319Z,30.56
2023-06-19T12:23:24.758Z,30.67
2023-06-19T12:24:25.835Z,30.73
2023-06-19T12:25:26.727Z,30.7
2023-06-19T12:26:26.749Z,30.74
2023-06-19T12:27:27.396Z,30.71
2023-06-19T12:28:27.830Z,30.77
2023-06-19T12:29:27.951Z,30.86
2023-06-19T12:30:29.084Z,30.92
2023-06-19T12:31:29.573Z,31.05
2023-06-19T12:32:29.642Z,31.32
2023-06-19T12:33:30.535Z,31.37
2023-06-19T12:34:37.397Z,31.42
2023-06-19T12:36:32.291Z,31.36
2023-06-19T12:37:33.265Z,31.35
2023-06-19T12:38:34.000Z,31.37
2023-06-19T12:39:34.839Z,31.41
2023-06-19T12:40:35.813Z,31.39
2023-06-19T12:41:36.901Z,31.42
2023-06-19T12:42:36.921Z,31.37
2023-06-19T12:43:37.869Z,31.37
2023-06-19T12:44:38.411Z,31.45
2023-06-19T12:45:39.438Z,31.41
2023-06-19T12:46:39.762Z,31.29
2023-06-19T12:47:40.408Z,31.25
2023-06-19T12:48:40.780Z,31.17
2023-06-19T12:49:41.659Z,31.22
2023-06-19T12:50:42.025Z,31.11
2023-06-19T12:51:42.840Z,30.96
2023-06-19T12:52:43.763Z,30.92
2023-06-19T12:53:44.728Z,30.92
2023-06-19T12:54:45.525Z,30.78
2023-06-19T12:56:09.202Z,30.65
2023-06-19T12:57:46.975Z,30.69
2023-06-19T12:58:47.294Z,30.55
2023-06-19T12:59:48.004Z,30.54
2023-06-19T13:00:48.758Z,30.44
2023-06-19T13:01:50.199Z,30.49
2023-06-19T13:02:50.794Z,30.46
2023-06-19T13:03:51.062Z,30.38
2023-06-19T13:04:50.896Z,30.32
2023-06-19T13:05:52.072Z,30.33
2023-06-19T13:06:53.067Z,30.26
2023-06-19T13:07:54.019Z,30.16
2023-06-19T13:08:53.818Z,30.1
2023-06-19T13:09:54.698Z,30.11
2023-06-19T13:10:55.812Z,30.1
2023-06-19T13:11:55.686Z,30.14
2023-06-19T13:12:56.579Z,30.13
2023-06-19T13:13:57.547Z,30.1
2023-06-19T13:14:58.051Z,30.06
2023-06-19T13:15:59.109Z,30.05
2023-06-19T13:16:59.456Z,30.13
2023-06-19T13:17:59.566Z,30.17
2023-06-19T13:19:00.068Z,30.13
2023-06-19T13:20:00.490Z,30.14
2023-06-19T13:21:01.689Z,30.31
2023-06-19T13:22:02.458Z,30.44
2023-06-19T13:23:02.692Z,30.63
2023-06-19T13:24:03.548Z,30.86
2023-06-19T13:25:03.861Z,30.86
2023-06-19T13:26:05.069Z,30.98
2023-06-19T13:27:05.409Z,31.08
2023-06-19T13:28:05.380Z,31.25
2023-06-19T13:29:06.356Z,31.42
2023-06-19T13:30:06.964Z,31.48
2023-06-19T13:31:07.741Z,31.47
2023-06-19T13:32:08.855Z,31.48